createdAt,value
2023-06-09T00:01:12.771Z,101292.88
2023-06-09T00:03:43.020Z,101281.13
2023-06-09T00:06:11.383Z,101287.13
2023-06-09T00:08:40.227Z,101289.63
2023-06-09T00:11:12.353Z,101289.19
2023-06-09T00:13:40.596Z,101292.50
2023-06-09T00:16:08.862Z,101298.97
2023-06-09T00:18:38.765Z,101308.69
2023-06-09T00:21:08.767Z,101306.59
2023-06-09T00:23:37.212Z,101304.56
2023-06-09T00:26:05.511Z,101305.03
2023-06-09T00:28:33.786Z,101307.69
2023-06-09T00:31:02.278Z,101302.97
2023-06-09T00:33:30.926Z,101306.69
2023-06-09T00:35:59.651Z,101307.50
2023-06-09T00:38:29.871Z,101308.34
2023-06-09T00:40:58.074Z,101310.84
2023-06-09T00:43:27.235Z,101303.81
2023-06-09T00:45:55.770Z,101305.03
2023-06-09T00:48:24.814Z,101313.06
2023-06-09T00:50:53.402Z,101310.59
2023-06-09T00:53:21.892Z,101310.97
2023-06-09T00:55:55.226Z,101312.81
2023-06-09T00:58:25.991Z,101321.09
2023-06-09T01:00:55.289Z,101317.31
2023-06-09T01:03:24.060Z,101312.13
2023-06-09T01:06:02.358Z,101319.13
2023-06-09T01:08:39.178Z,101318.03
2023-06-09T01:11:16.116Z,101316.91
2023-06-09T01:13:57.361Z,101322.88
2023-06-09T01:16:35.712Z,101325.31
2023-06-09T01:19:10.164Z,101332.06
2023-06-09T01:21:46.288Z,101327.47
2023-06-09T01:24:39.445Z,101329.69
2023-06-09T01:27:12.044Z,101325.94
2023-06-09T01:29:44.892Z,101332.88
2023-06-09T01:32:16.958Z,101334.47
2023-06-09T01:34:45.944Z,101336.72
2023-06-09T01:37:15.171Z,101327.19
2023-06-09T01:39:44.616Z,101330.22
2023-06-09T01:42:14.597Z,101335.78
2023-06-09T01:44:42.821Z,101332.47
2023-06-09T01:47:11.660Z,101331.81
2023-06-09T01:49:49.914Z,101328.41
2023-06-09T01:52:24.561Z,101334.25
2023-06-09T01:54:56.806Z,101335.44
2023-06-09T01:57:33.401Z,101333.78
2023-06-09T02:00:06.187Z,101338.84
2023-06-09T02:02:37.741Z,101341.09
2023-06-09T02:05:10.105Z,101342.31
2023-06-09T02:07:41.167Z,101353.41
2023-06-09T02:10:11.687Z,101345.91
2023-06-09T02:12:43.517Z,101341.91
2023-06-09T02:15:12.244Z,101338.94
2023-06-09T02:17:41.845Z,101346.72
2023-06-09T02:20:12.910Z,101341.53
2023-06-09T02:22:41.700Z,101341.72
2023-06-09T02:25:11.186Z,101340.91
2023-06-09T02:27:40.886Z,101345.59
2023-06-09T02:30:10.532Z,101340.59
2023-06-09T02:32:40.313Z,101341.81
2023-06-09T02:35:09.412Z,101334.34
2023-06-09T02:37:38.333Z,101348.75
2023-06-09T02:40:08.090Z,101347.06
2023-06-09T02:42:36.359Z,101355.13
2023-06-09T02:45:09.656Z,101360.66
2023-06-09T02:47:40.777Z,101373.03
2023-06-09T02:50:10.284Z,101372.31
2023-06-09T02:52:41.408Z,101379.63
2023-06-09T02:55:33.689Z,101362.44
2023-06-09T02:58:02.042Z,101367.78
2023-06-09T03:00:35.547Z,101382.84
2023-06-09T03:03:08.128Z,101373.75
2023-06-09T03:05:41.645Z,101377.59
2023-06-09T03:08:13.353Z,101383.34
2023-06-09T03:10:41.766Z,101385.31
2023-06-09T03:13:10.124Z,101381.75
2023-06-09T03:15:46.712Z,101377.38
2023-06-09T03:18:15.769Z,101385.19
2023-06-09T03:20:44.555Z,101387.34
2023-06-09T03:23:17.251Z,101389.19
2023-06-09T03:25:45.562Z,101387.34
2023-06-09T03:28:13.877Z,101391.00
2023-06-09T03:30:42.287Z,101394.19
2023-06-09T03:33:14.116Z,101397.59
2023-06-09T03:35:42.671Z,101402.84
2023-06-09T03:38:11.227Z,101388.63
2023-06-09T03:40:40.009Z,101398.47
2023-06-09T03:43:08.995Z,101396.84
2023-06-09T03:45:37.430Z,101395.63
2023-06-09T03:48:07.613Z,101400.34
2023-06-09T03:50:37.860Z,101401.44
2023-06-09T03:53:06.532Z,101405.53
2023-06-09T03:55:35.026Z,101406.56
2023-06-09T03:58:10.227Z,101415.03
2023-06-09T04:00:38.541Z,101412.31
2023-06-09T04:03:08.019Z,101416.06
2023-06-09T04:05:38.462Z,101405.53
2023-06-09T04:08:07.332Z,101419.88
2023-06-09T04:10:36.031Z,101410.34
2023-06-09T04:13:04.506Z,101413.09
2023-06-09T04:15:33.480Z,101411.66
2023-06-09T04:18:06.156Z,101406.47
2023-06-09T04:20:37.870Z,101405.84
2023-06-09T04:23:06.494Z,101408.81
2023-06-09T04:25:35.936Z,101405.69
2023-06-09T04:28:05.480Z,101411.22
2023-06-09T04:30:35.933Z,101409.13
2023-06-09T04:33:06.152Z,101410.16
2023-06-09T04:35:36.132Z,101416.09
2023-06-09T04:38:06.091Z,101424.19
2023-06-09T04:40:34.505Z,101418.31
2023-06-09T04:43:02.991Z,101421.84
2023-06-09T04:45:35.806Z,101428.28
2023-06-09T04:48:06.427Z,101420.84
2023-06-09T04:50:34.997Z,101425.59
2023-06-09T04:53:05.253Z,101426.25
2023-06-09T04:55:37.259Z,101417.72
2023-06-09T04:58:06.196Z,101418.56
2023-06-09T05:00:34.397Z,101422.28
2023-06-09T05:03:04.274Z,101431.63
2023-06-09T05:05:32.694Z,101428.56
2023-06-09T05:08:01.147Z,101429.56
2023-06-09T05:10:29.518Z,101430.81
2023-06-09T05:12:59.282Z,101437.84
2023-06-09T05:15:27.597Z,101433.34
2023-06-09T05:17:56.009Z,101434.25
2023-06-09T05:20:24.805Z,101435.31
2023-06-09T05:22:53.016Z,101448.81
2023-06-09T05:25:21.994Z,101449.47
2023-06-09T05:27:50.309Z,101449.47
2023-06-09T05:30:20.115Z,101450.91
2023-06-09T05:32:48.487Z,101436.38
2023-06-09T05:35:18.746Z,101437.41
2023-06-09T05:37:54.507Z,101449.47
2023-06-09T05:40:23.609Z,101448.84
2023-06-09T05:42:52.174Z,101447.00
2023-06-09T05:45:23.691Z,101454.88
2023-06-09T05:47:53.129Z,101446.00
2023-06-09T05:50:21.668Z,101460.94
2023-06-09T05:52:49.989Z,101449.97
2023-06-09T05:55:19.782Z,101457.25
2023-06-09T05:57:50.186Z,101460.78
2023-06-09T06:00:19.568Z,101460.34
2023-06-09T06:02:49.802Z,101451.03
2023-06-09T06:05:18.556Z,101447.31
2023-06-09T06:07:46.859Z,101459.75
2023-06-09T06:10:15.608Z,101459.38
2023-06-09T06:12:45.570Z,101469.94
2023-06-09T06:15:14.426Z,101472.25
2023-06-09T06:17:42.958Z,101475.97
2023-06-09T06:20:14.454Z,101475.16
2023-06-09T06:22:44.437Z,101483.66
2023-06-09T06:25:14.725Z,101462.72
2023-06-09T06:27:46.095Z,101472.66
2023-06-09T06:30:22.774Z,101478.03
2023-06-09T06:32:52.832Z,101481.78
2023-06-09T06:35:28.819Z,101485.06
2023-06-09T06:37:57.525Z,101491.84
2023-06-09T06:40:26.442Z,101483.91
2023-06-09T06:42:58.032Z,101489.09
2023-06-09T06:45:27.592Z,101495.69
2023-06-09T06:47:57.109Z,101503.59
2023-06-09T06:50:29.715Z,101508.75
2023-06-09T06:52:58.760Z,101508.16
2023-06-09T06:55:29.317Z,101512.31
2023-06-09T06:57:59.713Z,101514.63
2023-06-09T07:00:29.264Z,101502.97
2023-06-09T07:03:01.554Z,101518.78
2023-06-09T07:05:31.514Z,101520.63
2023-06-09T07:08:00.066Z,101519.53
2023-06-09T07:10:28.819Z,101523.94
2023-06-09T07:12:57.631Z,101521.03
2023-06-09T07:15:26.068Z,101521.19
2023-06-09T07:17:55.474Z,101525.97
2023-06-09T07:20:25.119Z,101522.16
2023-06-09T07:22:55.323Z,101523.75
2023-06-09T07:25:23.686Z,101523.06
2023-06-09T07:27:52.798Z,101519.97
2023-06-09T07:30:21.540Z,101522.56
2023-06-09T07:32:50.749Z,101527.91
2023-06-09T07:35:25.485Z,101522.81
2023-06-09T07:37:55.567Z,101518.19
2023-06-09T07:40:24.326Z,101527.41
2023-06-09T07:42:53.051Z,101519.44
2023-06-09T07:45:21.888Z,101511.72
2023-06-09T07:47:50.615Z,101507.19
2023-06-09T07:50:22.492Z,101516.69
2023-06-09T07:52:50.909Z,101510.75
2023-06-09T07:55:23.510Z,101517.34
2023-06-09T07:57:54.795Z,101514.66
2023-06-09T08:00:25.096Z,101520.69
2023-06-09T08:03:04.760Z,101504.38
2023-06-09T08:05:36.641Z,101522.44
2023-06-09T08:08:05.924Z,101529.41
2023-06-09T08:10:35.606Z,101517.59
2023-06-09T08:13:03.899Z,101517.03
2023-06-09T08:15:32.292Z,101514.69
2023-06-09T08:18:02.384Z,101523.84
2023-06-09T08:20:32.570Z,101509.13
2023-06-09T08:23:00.838Z,101530.63
2023-06-09T08:25:31.477Z,101531.81
2023-06-09T08:28:01.389Z,101538.66
2023-06-09T08:30:29.745Z,101526.84
2023-06-09T08:32:59.070Z,101530.38
2023-06-09T08:35:37.312Z,101550.94
2023-06-09T08:38:05.773Z,101533.16
2023-06-09T08:40:36.460Z,101530.03
2023-06-09T08:43:07.471Z,101536.34
2023-06-09T08:45:39.148Z,101522.88
2023-06-09T08:48:10.612Z,101540.91
2023-06-09T08:50:42.776Z,101539.84
2023-06-09T08:53:13.284Z,101535.78
2023-06-09T08:55:42.343Z,101534.50
2023-06-09T08:58:13.339Z,101529.69
2023-06-09T09:00:43.068Z,101536.59
2023-06-09T09:03:11.413Z,101530.50
2023-06-09T09:05:42.057Z,101540.69
2023-06-09T09:08:10.742Z,101545.78
2023-06-09T09:10:39.976Z,101540.69
2023-06-09T09:13:12.329Z,101545.88
2023-06-09T09:15:50.271Z,101539.53
2023-06-09T09:18:20.983Z,101538.28
2023-06-09T09:20:51.110Z,101537.13
2023-06-09T09:23:19.533Z,101538.13
2023-06-09T09:25:52.233Z,101547.53
2023-06-09T09:28:22.076Z,101549.06
2023-06-09T09:30:52.797Z,101553.13
2023-06-09T09:33:22.988Z,101522.88
2023-06-09T09:35:54.790Z,101536.47
2023-06-09T09:38:25.408Z,101538.13
2023-06-09T09:40:56.729Z,101532.69
2023-06-09T09:43:28.188Z,101534.13
2023-06-09T09:46:00.587Z,101539.78
2023-06-09T09:48:31.929Z,101543.56
2023-06-09T09:51:01.809Z,101543.09
2023-06-09T09:53:51.666Z,101548.38
2023-06-09T09:56:24.217Z,101552.84
2023-06-09T09:58:56.907Z,101553.19
2023-06-09T10:01:27.367Z,101548.13
2023-06-09T10:03:56.406Z,101534.56
2023-06-09T10:06:33.584Z,101555.56
2023-06-09T10:09:07.762Z,101549.44
2023-06-09T10:11:42.040Z,101545.66
2023-06-09T10:14:12.344Z,101566.09
2023-06-09T10:16:43.743Z,101540.81
2023-06-09T10:19:12.926Z,101560.66
2023-06-09T10:21:49.291Z,101552.38
2023-06-09T10:24:20.559Z,101529.34
2023-06-09T10:26:51.033Z,101556.72
2023-06-09T10:29:21.437Z,101542.09
2023-06-09T10:31:54.484Z,101549.25
2023-06-09T10:34:23.891Z,101546.78
2023-06-09T10:36:57.046Z,101534.09
2023-06-09T10:39:33.130Z,101542.34
2023-06-09T10:42:12.046Z,101533.38
2023-06-09T10:45:01.522Z,101502.56
2023-06-09T10:47:46.874Z,101519.63
2023-06-09T10:50:27.933Z,101527.69
2023-06-09T10:52:57.669Z,101528.19
2023-06-09T10:55:28.538Z,101532.56
2023-06-09T10:57:58.695Z,101524.78
2023-06-09T11:01:08.406Z,101514.34
2023-06-09T11:03:37.568Z,101497.09
2023-06-09T11:06:06.125Z,101516.38
2023-06-09T11:09:10.284Z,101518.16
2023-06-09T11:12:01.031Z,101524.56
2023-06-09T11:14:54.208Z,101527.41
2023-06-09T11:17:27.389Z,101517.91
2023-06-09T11:20:16.276Z,101510.38
2023-06-09T11:23:04.652Z,101525.28
2023-06-09T11:25:39.354Z,101515.47
2023-06-09T11:28:23.274Z,101518.19
2023-06-09T11:31:03.833Z,101525.03
2023-06-09T11:33:54.905Z,101527.63
2023-06-09T11:36:31.324Z,101523.97
2023-06-09T11:39:07.968Z,101512.25
2023-06-09T11:41:36.673Z,101516.13
2023-06-09T11:44:05.019Z,101509.03
2023-06-09T11:46:36.246Z,101510.13
2023-06-09T11:49:12.412Z,101508.94
2023-06-09T11:52:07.710Z,101516.03
2023-06-09T11:54:48.287Z,101515.56
2023-06-09T11:57:20.723Z,101514.84
2023-06-09T11:59:49.234Z,101516.16
2023-06-09T12:02:20.312Z,101518.53
2023-06-09T12:04:50.574Z,101512.25
2023-06-09T12:07:22.979Z,101516.63
2023-06-09T12:09:59.739Z,101513.66
2023-06-09T12:12:28.610Z,101513.09
2023-06-09T12:15:01.484Z,101514.38
2023-06-09T12:17:30.134Z,101517.22
2023-06-09T12:20:00.015Z,101513.41
2023-06-09T12:22:38.975Z,101507.38
2023-06-09T12:25:21.501Z,101512.84
2023-06-09T12:27:49.813Z,101509.53
2023-06-09T12:30:37.328Z,101514.63
2023-06-09T12:33:08.159Z,101511.53
2023-06-09T12:35:44.473Z,101499.59
2023-06-09T12:38:17.204Z,101516.97
2023-06-09T12:40:51.216Z,101514.25
2023-06-09T12:43:20.750Z,101504.69
2023-06-09T12:45:50.963Z,101506.44
2023-06-09T12:48:19.483Z,101514.97
2023-06-09T12:50:50.424Z,101513.91
2023-06-09T12:53:18.969Z,101506.56
2023-06-09T12:55:47.229Z,101509.28
2023-06-09T12:58:15.657Z,101507.13
2023-06-09T13:00:44.018Z,101515.00
2023-06-09T13:03:13.724Z,101509.09
2023-06-09T13:05:43.986Z,101504.38
2023-06-09T13:08:13.728Z,101511.06
2023-06-09T13:10:42.114Z,101501.38
2023-06-09T13:13:10.598Z,101516.88
2023-06-09T13:15:38.838Z,101519.38
2023-06-09T13:18:11.458Z,101505.44
2023-06-09T13:20:39.928Z,101504.38
2023-06-09T13:23:08.642Z,101507.69
2023-06-09T13:25:45.217Z,101510.31
2023-06-09T13:28:15.510Z,101505.16
2023-06-09T13:30:44.881Z,101504.91
2023-06-09T13:33:14.531Z,101497.84
2023-06-09T13:35:46.076Z,101506.59
2023-06-09T13:38:16.774Z,101504.31
2023-06-09T13:40:48.407Z,101499.88
2023-06-09T13:43:18.209Z,101495.34
2023-06-09T13:45:46.647Z,101494.88
2023-06-09T13:48:21.662Z,101493.28
2023-06-09T13:50:51.555Z,101491.00
2023-06-09T13:53:20.025Z,101510.75
2023-06-09T13:55:49.953Z,101493.38
2023-06-09T13:58:18.404Z,101494.78
2023-06-09T14:00:46.763Z,101493.34
2023-06-09T14:03:15.501Z,101493.22
2023-06-09T14:05:44.340Z,101489.75
2023-06-09T14:08:12.634Z,101484.88
2023-06-09T14:10:41.599Z,101488.94
2023-06-09T14:13:11.727Z,101501.47
2023-06-09T14:15:40.114Z,101489.59
2023-06-09T14:18:08.461Z,101497.19
2023-06-09T14:20:36.955Z,101494.22
2023-06-09T14:23:10.011Z,101493.25
2023-06-09T14:25:38.835Z,101490.84
2023-06-09T14:28:08.589Z,101492.25
2023-06-09T14:30:38.767Z,101494.03
2023-06-09T14:33:07.289Z,101493.69
2023-06-09T14:35:39.300Z,101497.75
2023-06-09T14:38:08.590Z,101489.41
2023-06-09T14:40:37.790Z,101485.47
2023-06-09T14:43:10.448Z,101485.81
2023-06-09T14:45:40.865Z,101475.16
2023-06-09T14:48:10.959Z,101478.88
2023-06-09T14:50:41.568Z,101485.88
2023-06-09T14:53:12.164Z,101483.56
2023-06-09T14:55:43.721Z,101483.56
2023-06-09T14:58:12.921Z,101488.34
2023-06-09T15:00:43.334Z,101485.84
2023-06-09T15:03:14.007Z,101483.38
2023-06-09T15:05:43.945Z,101476.38
2023-06-09T15:08:12.621Z,101480.59
2023-06-09T15:10:43.857Z,101482.13
2023-06-09T15:13:13.426Z,101472.16
2023-06-09T15:15:46.526Z,101480.31
2023-06-09T15:18:15.678Z,101473.31
2023-06-09T15:20:45.199Z,101482.03
2023-06-09T15:23:14.386Z,101480.47
2023-06-09T15:25:45.118Z,101482.53
2023-06-09T15:28:14.495Z,101472.56
2023-06-09T15:30:46.577Z,101480.56
2023-06-09T15:33:17.630Z,101486.78
2023-06-09T15:35:50.576Z,101477.56
2023-06-09T15:38:19.929Z,101469.03
2023-06-09T15:40:50.091Z,101484.03
2023-06-09T15:43:19.675Z,101482.28
2023-06-09T15:45:52.094Z,101482.34
2023-06-09T15:48:21.516Z,101476.97
2023-06-09T15:50:51.195Z,101479.13
2023-06-09T15:53:22.152Z,101481.69
2023-06-09T15:55:51.188Z,101484.41
2023-06-09T15:58:20.757Z,101483.91
2023-06-09T16:00:50.892Z,101482.34
2023-06-09T16:03:20.067Z,101490.22
2023-06-09T16:05:49.112Z,101486.78
2023-06-09T16:08:20.000Z,101472.66
2023-06-09T16:10:51.440Z,101479.09
2023-06-09T16:13:20.907Z,101487.53
2023-06-09T16:15:52.011Z,101484.59
2023-06-09T16:18:22.857Z,101483.56
2023-06-09T16:20:51.478Z,101490.59
2023-06-09T16:23:19.651Z,101492.13
2023-06-09T16:25:48.551Z,101493.34
2023-06-09T16:28:16.976Z,101494.28
2023-06-09T16:30:45.250Z,101497.19
2023-06-09T16:33:15.558Z,101495.28
2023-06-09T16:35:44.468Z,101501.06
2023-06-09T16:38:12.908Z,101502.09
2023-06-09T16:40:41.630Z,101497.88
2023-06-09T16:43:11.914Z,101500.50
2023-06-09T16:45:40.339Z,101496.63
2023-06-09T16:48:09.496Z,101497.59
2023-06-09T16:50:40.147Z,101508.75
2023-06-09T16:53:08.547Z,101510.00
2023-06-09T16:55:36.783Z,101513.03
2023-06-09T16:58:08.879Z,101510.09
2023-06-09T17:00:37.348Z,101505.75
2023-06-09T17:03:21.284Z,101504.41
2023-06-09T17:05:51.180Z,101509.25
2023-06-09T17:08:26.075Z,101508.97
2023-06-09T17:10:54.406Z,101503.22
2023-06-09T17:13:22.835Z,101503.97
2023-06-09T17:15:51.172Z,101500.41
2023-06-09T17:18:22.114Z,101496.81
2023-06-09T17:20:52.096Z,101505.31
2023-06-09T17:23:34.029Z,101504.19
2023-06-09T17:26:02.722Z,101500.09
2023-06-09T17:28:40.751Z,101499.06
2023-06-09T17:31:27.432Z,101504.59
2023-06-09T17:33:56.227Z,101502.41
2023-06-09T17:36:27.384Z,101498.22
2023-06-09T17:39:04.565Z,101505.91
2023-06-09T17:41:33.029Z,101513.56
2023-06-09T17:44:06.579Z,101507.91
2023-06-09T17:46:35.025Z,101517.81
2023-06-09T17:49:03.375Z,101514.63
2023-06-09T17:51:37.139Z,101519.19
2023-06-09T17:54:23.368Z,101516.25
2023-06-09T17:56:51.831Z,101517.88
2023-06-09T17:59:20.139Z,101525.81
2023-06-09T18:01:51.884Z,101529.75
2023-06-09T18:04:23.925Z,101523.75
2023-06-09T18:06:53.609Z,101533.66
2023-06-09T18:09:23.250Z,101530.22
2023-06-09T18:11:51.422Z,101530.34
2023-06-09T18:14:20.083Z,101528.47
2023-06-09T18:16:48.562Z,101533.19
2023-06-09T18:19:17.273Z,101541.97
2023-06-09T18:21:46.161Z,101532.41
2023-06-09T18:24:17.060Z,101539.78
2023-06-09T18:26:47.377Z,101541.72
2023-06-09T18:29:16.084Z,101543.38
2023-06-09T18:31:44.805Z,101549.66
2023-06-09T18:34:13.864Z,101545.31
2023-06-09T18:36:42.490Z,101548.56
2023-06-09T18:39:11.819Z,101548.50
2023-06-09T18:41:43.197Z,101553.72
2023-06-09T18:44:13.203Z,101552.19
2023-06-09T18:46:44.430Z,101547.94
2023-06-09T18:49:12.690Z,101564.06
2023-06-09T18:51:41.726Z,101566.59
2023-06-09T18:54:10.231Z,101564.88
2023-06-09T18:56:39.052Z,101562.34
2023-06-09T18:59:09.040Z,101566.13
2023-06-09T19:01:37.309Z,101564.31
2023-06-09T19:04:06.108Z,101565.97
2023-06-09T19:06:36.492Z,101574.88
2023-06-09T19:09:09.499Z,101566.91
2023-06-09T19:11:39.810Z,101573.63
2023-06-09T19:14:10.099Z,101585.94
2023-06-09T19:16:38.804Z,101584.44
2023-06-09T19:19:07.065Z,101591.50
2023-06-09T19:21:38.720Z,101593.94
2023-06-09T19:24:07.549Z,101599.25
2023-06-09T19:26:38.221Z,101606.19
2023-06-09T19:29:06.469Z,101604.19
2023-06-09T19:31:38.184Z,101605.03
2023-06-09T19:34:07.799Z,101609.22
2023-06-09T19:36:36.170Z,101615.28
2023-06-09T19:39:04.893Z,101617.13
2023-06-09T19:41:33.645Z,101629.41
2023-06-09T19:44:01.866Z,101627.94
2023-06-09T19:46:30.104Z,101641.03
2023-06-09T19:49:01.426Z,101632.09
2023-06-09T19:51:29.598Z,101639.34
2023-06-09T19:54:00.267Z,101634.69
2023-06-09T19:56:29.624Z,101633.38
2023-06-09T19:59:00.104Z,101643.28
2023-06-09T20:01:28.385Z,101638.03
2023-06-09T20:03:57.229Z,101646.88
2023-06-09T20:06:27.922Z,101642.44
2023-06-09T20:08:58.090Z,101662.88
2023-06-09T20:11:26.297Z,101653.88
2023-06-09T20:13:54.561Z,101663.94
2023-06-09T20:16:23.626Z,101666.94
2023-06-09T20:18:52.458Z,101666.25
2023-06-09T20:21:22.121Z,101678.84
2023-06-09T20:23:52.191Z,101676.28
2023-06-09T20:26:20.629Z,101681.78
2023-06-09T20:28:49.177Z,101689.34
2023-06-09T20:31:21.390Z,101685.56
2023-06-09T20:33:54.830Z,101687.53
2023-06-09T20:36:27.317Z,101689.50
2023-06-09T20:38:57.015Z,101687.31
2023-06-09T20:41:26.399Z,101691.97
2023-06-09T20:43:55.918Z,101700.13
2023-06-09T20:46:26.137Z,101704.97
2023-06-09T20:48:54.378Z,101698.88
2023-06-09T20:51:22.946Z,101698.56
2023-06-09T20:53:52.002Z,101703.19
2023-06-09T20:56:22.943Z,101700.78
2023-06-09T20:58:51.658Z,101701.06
2023-06-09T21:01:20.312Z,101697.72
2023-06-09T21:03:49.262Z,101708.53
2023-06-09T21:06:21.491Z,101710.09
2023-06-09T21:08:49.944Z,101709.84
2023-06-09T21:11:18.593Z,101714.06
2023-06-09T21:13:48.793Z,101707.59
2023-06-09T21:16:17.180Z,101709.63
2023-06-09T21:18:45.928Z,101714.69
2023-06-09T21:21:14.222Z,101714.03
2023-06-09T21:23:42.982Z,101708.00
2023-06-09T21:26:11.270Z,101711.06
2023-06-09T21:28:43.487Z,101715.13
2023-06-09T21:31:13.675Z,101718.34
2023-06-09T21:33:43.109Z,101717.22
2023-06-09T21:36:11.772Z,101719.59
2023-06-09T21:38:40.517Z,101723.66
2023-06-09T21:41:08.837Z,101728.91
2023-06-09T21:43:37.678Z,101726.75
2023-06-09T21:46:05.995Z,101728.66
2023-06-09T21:48:37.832Z,101719.84
2023-06-09T21:51:06.067Z,101722.88
2023-06-09T21:53:34.302Z,101725.38
2023-06-09T21:56:03.032Z,101719.06
2023-06-09T21:58:31.289Z,101720.78
2023-06-09T22:00:59.582Z,101715.31
2023-06-09T22:03:28.105Z,101724.03
2023-06-09T22:05:58.258Z,101720.38
2023-06-09T22:08:26.543Z,101713.03
2023-06-09T22:10:55.069Z,101711.06
2023-06-09T22:13:24.436Z,101711.56
2023-06-09T22:15:53.335Z,101706.94
2023-06-09T22:18:21.917Z,101719.16
2023-06-09T22:20:50.265Z,101721.50
2023-06-09T22:23:20.875Z,101711.50
2023-06-09T22:25:49.250Z,101711.34
2023-06-09T22:28:18.389Z,101716.56
2023-06-09T22:30:48.259Z,101718.41
2023-06-09T22:33:19.050Z,101725.28
2023-06-09T22:35:47.553Z,101716.44
2023-06-09T22:38:16.307Z,101720.78
2023-06-09T22:40:46.407Z,101721.47
2023-06-09T22:43:14.687Z,101721.31
2023-06-09T22:45:43.517Z,101726.50
2023-06-09T22:48:12.751Z,101728.31
2023-06-09T22:50:42.198Z,101733.69
2023-06-09T22:53:14.334Z,101731.63
2023-06-09T22:55:42.762Z,101740.66
2023-06-09T22:58:12.612Z,101727.44
2023-06-09T23:00:40.954Z,101734.44
2023-06-09T23:03:09.429Z,101735.28
2023-06-09T23:05:41.800Z,101738.91
2023-06-09T23:08:10.282Z,101740.56
2023-06-09T23:10:38.568Z,101744.91
2023-06-09T23:13:06.912Z,101735.00
2023-06-09T23:15:37.093Z,101744.69
2023-06-09T23:18:06.216Z,101741.66
2023-06-09T23:20:36.315Z,101739.59
2023-06-09T23:23:04.908Z,101739.41
2023-06-09T23:25:34.502Z,101741.72
2023-06-09T23:28:03.807Z,101738.03
2023-06-09T23:30:32.084Z,101740.47
2023-06-09T23:33:02.333Z,101740.31
2023-06-09T23:35:34.291Z,101744.56
2023-06-09T23:38:02.723Z,101737.22
2023-06-09T23:40:30.964Z,101748.34
2023-06-09T23:43:00.007Z,101743.66
2023-06-09T23:45:28.300Z,101744.44
2023-06-09T23:47:56.885Z,101739.72
2023-06-09T23:50:27.060Z,101746.38
2023-06-09T23:52:55.492Z,101729.13
2023-06-09T23:55:23.983Z,101738.78
2023-06-09T23:57:52.685Z,101738.53
